| time (UTC) | temp C | wind direction | speed KPH | gust KPH | rain 1hr cm | rain 24hr cm | rain mn cm | humidity % | barometer mb |
| 20260510190820 | 27 | 228 | 3.2 | 6.4 | 0.00 | 0.00 | 0.00 | 68 | 1014.4 |
| 20260510190316 | 27 | 310 | 4.8 | 6.4 | 0.00 | 0.00 | 0.00 | 68 | 1014.6 |
| 20260510185813 | 27 | 278 | 1.6 | 6.4 | 0.00 | 0.00 | 0.00 | 68 | 1015.2 |
| 20260510185307 | 27 | 252 | 6.4 | 9.7 | 0.00 | 0.00 | 0.00 | 68 | 1014.8 |
| 20260510184803 | 27 | 312 | 0.0 | 3.2 | 0.00 | 0.00 | 0.00 | 69 | 1014.8 |
| 20260510184259 | 27 | 193 | 0.0 | 4.8 | 0.00 | 0.00 | 0.00 | 70 | 1014.7 |
| 20260510183755 | 27 | 214 | 0.0 | 4.8 | 0.00 | 0.00 | 0.00 | 69 | 1014.9 |
| 20260510183252 | 26 | 297 | 4.8 | 4.8 | 0.00 | 0.00 | 0.00 | 71 | 1014.9 |
| 20260510183007 | 26 | 172 | 3.2 | 4.8 | 0.00 | 0.00 | 0.00 | 72 | 1014.9 |
| 20260510182243 | 26 | 302 | 3.2 | 4.8 | 0.00 | 0.00 | 0.00 | 75 | 1015.0 |
| 20260510181739 | 27 | 36 | 6.4 | 6.4 | 0.00 | 0.00 | 0.00 | 72 | 1015.0 |
| 20260510181234 | 26 | 188 | 0.0 | 4.8 | 0.00 | 0.00 | 0.00 | 74 | 1015.1 |
| 20260510180731 | 26 | 181 | 1.6 | 4.8 | 0.00 | 0.00 | 0.00 | 72 | 1015.2 |
| 20260510180226 | 27 | 268 | 4.8 | 9.7 | 0.00 | 0.00 | 0.00 | 71 | 1015.3 |
| 20260510175940 | 26 | 113 | 4.8 | 6.4 | 0.00 | 0.00 | 0.00 | 70 | 1015.4 |
| 20260510175218 | 26 | 335 | 1.6 | 6.4 | 0.00 | 0.00 | 0.00 | 76 | 1015.6 |
| 20260510174713 | 26 | 13 | 4.8 | 6.4 | 0.00 | 0.00 | 0.00 | 75 | 1015.7 |
| 20260510174209 | 25 | 188 | 1.6 | 3.2 | 0.00 | 0.00 | 0.00 | 79 | 1015.8 |
| 20260510173706 | 25 | 250 | 1.6 | 6.4 | 0.00 | 0.00 | 0.00 | 77 | 1015.9 |
| 20260510173202 | 26 | 333 | 3.2 | 11.3 | 0.00 | 0.00 | 0.00 | 78 | 1015.8 |
| 20260510172657 | 25 | 133 | 1.6 | 4.8 | 0.00 | 0.00 | 0.00 | 78 | 1015.8 |
| 20260510172415 | 24 | 141 | 0.0 | 1.6 | 0.00 | 0.00 | 0.00 | 82 | 1015.8 |
| 20260510171650 | 25 | 18 | 4.8 | 6.4 | 0.00 | 0.00 | 0.00 | 79 | 1016.0 |
| 20260510171145 | 25 | 250 | 3.2 | 3.2 | 0.00 | 0.00 | 0.00 | 80 | 1016.2 |
| 20260510170642 | 25 | 332 | 3.2 | 4.8 | 0.00 | 0.00 | 0.00 | 79 | 1016.2 |
| 20260510170137 | 25 | 38 | 1.6 | 4.8 | 0.00 | 0.00 | 0.00 | 78 | 1015.9 |
| 20260510165855 | 25 | 236 | 1.6 | 4.8 | 0.00 | 0.00 | 0.00 | 75 | 1015.8 |
| 20260510165130 | 25 | 319 | 1.6 | 9.7 | 0.00 | 0.00 | 0.00 | 78 | 1016.2 |
| 20260510164626 | 24 | 238 | 3.2 | 3.2 | 0.00 | 0.00 | 0.00 | 78 | 1016.2 |
| 20260510164121 | 25 | 36 | 3.2 | 3.2 | 0.00 | 0.00 | 0.00 | 79 | 1016.0 |
| 20260510163618 | 25 | 15 | 3.2 | 4.8 | 0.00 | 0.00 | 0.00 | 76 | 1016.1 |
| 20260510163115 | 25 | 276 | 0.0 | 3.2 | 0.00 | 0.00 | 0.00 | 78 | 1016.2 |
| 20260510162609 | 25 | 157 | 0.0 | 3.2 | 0.00 | 0.00 | 0.00 | 80 | 1016.3 |
| 20260510162105 | 23 | 125 | 0.0 | 0.0 | 0.00 | 0.00 | 0.00 | 83 | 1016.2 |
| 20260510161810 | 24 | 224 | 0.0 | 4.8 | 0.00 | 0.00 | 0.00 | 82 | 1016.2 |
| 20260510161303 | 25 | 273 | 3.2 | 4.8 | 0.00 | 0.00 | 0.00 | 79 | 1016.1 |
| 20260510160540 | 24 | 197 | 3.2 | 3.2 | 0.00 | 0.00 | 0.00 | 79 | 1016.1 |
| 20260510160032 | 24 | 290 | 3.2 | 4.8 | 0.00 | 0.00 | 0.00 | 80 | 1016.4 |
| 20260510155449 | 25 | 180 | 0.0 | 1.6 | 0.00 | 0.00 | 0.00 | 80 | 1016.1 |
| 20260510154909 | 24 | 204 | 1.6 | 4.8 | 0.00 | 0.00 | 0.00 | 79 | 1016.2 |
| 20260510154557 | 23 | 269 | 4.8 | 4.8 | 0.00 | 0.00 | 0.00 | 83 | 1016.3 |
| 20260510153836 | 23 | 228 | 1.6 | 4.8 | 0.00 | 0.00 | 0.00 | 84 | 1016.2 |
| 20260510153321 | 23 | 298 | 6.4 | 6.4 | 0.00 | 0.00 | 0.00 | 82 | 1016.4 |
| 20260510152817 | 24 | 260 | 9.7 | 11.3 | 0.00 | 0.00 | 0.00 | 81 | 1016.1 |
| 20260510152313 | 23 | 191 | 0.0 | 3.2 | 0.00 | 0.00 | 0.00 | 83 | 1016.1 |
| 20260510151809 | 22 | 189 | 1.6 | 1.6 | 0.00 | 0.00 | 0.00 | 85 | 1016.1 |
| 20260510151306 | 22 | 231 | 3.2 | 4.8 | 0.00 | 0.00 | 0.00 | 86 | 1016.1 |
| 20260510150802 | 22 | 225 | 0.0 | 1.6 | 0.00 | 0.00 | 0.00 | 86 | 1016.1 |
| 20260510150258 | 22 | 261 | 0.0 | 3.2 | 0.00 | 0.00 | 0.00 | 87 | 1016.3 |
| 20260510145754 | 22 | 216 | 3.2 | 6.4 | 0.00 | 0.00 | 0.00 | 87 | 1016.3 |
| 20260510145251 | 22 | 283 | 3.2 | 4.8 | 0.00 | 0.00 | 0.00 | 87 | 1016.2 |
| 20260510145231 | 22 | 164 | 0.0 | 0.0 | 0.00 | 0.00 | 0.00 | 87 | 1016.0 |
| 20260510144242 | 22 | 198 | 0.0 | 0.0 | 0.00 | 0.00 | 0.00 | 85 | 1016.4 |
| 20260510143737 | 22 | 184 | 0.0 | 1.6 | 0.00 | 0.00 | 0.00 | 86 | 1016.6 |
| 20260510143234 | 22 | 134 | 0.0 | 0.0 | 0.00 | 0.00 | 0.00 | 87 | 1016.2 |
| 20260510142730 | 22 | 186 | 0.0 | 3.2 | 0.00 | 0.00 | 0.00 | 88 | 1016.4 |
| 20260510142224 | 22 | 203 | 1.6 | 6.4 | 0.00 | 0.00 | 0.00 | 88 | 1016.2 |
| 20260510141939 | 21 | 196 | 0.0 | 1.6 | 0.00 | 0.00 | 0.00 | 87 | 1016.2 |
| 20260510141215 | 21 | 85 | 0.0 | 3.2 | 0.00 | 0.00 | 0.00 | 88 | 1016.2 |
| 20260510140933 | 21 | 189 | 0.0 | 0.0 | 0.00 | 0.00 | 0.00 | 90 | 1016.2 |
| 20260510140207 | 21 | 208 | 0.0 | 1.6 | 0.00 | 0.00 | 0.00 | 91 | 1016.4 |
| 20260510135702 | 21 | 208 | 0.0 | 3.2 | 0.00 | 0.00 | 0.00 | 92 | 1016.3 |
| 20260510135157 | 21 | 190 | 0.0 | 0.0 | 0.00 | 0.00 | 0.00 | 92 | 1016.3 |
| 20260510134654 | 21 | 208 | 0.0 | 3.2 | 0.00 | 0.00 | 0.00 | 92 | 1016.1 |
| 20260510134150 | 21 | 195 | 0.0 | 1.6 | 0.00 | 0.00 | 0.00 | 93 | 1016.3 |
| 20260510133647 | 20 | 166 | 0.0 | 0.0 | 0.00 | 0.00 | 0.00 | 95 | 1016.2 |
| 20260510133140 | 20 | 136 | 0.0 | 0.0 | 0.00 | 0.00 | 0.00 | 97 | 1016.0 |
| 20260510132637 | 20 | 154 | 0.0 | 3.2 | 0.00 | 0.00 | 0.00 | 97 | 1016.2 |
| 20260510132133 | 20 | 107 | 0.0 | 3.2 | 0.00 | 0.00 | 0.00 | 99 | 1016.2 |
| 20260510131628 | 20 | 188 | 0.0 | 0.0 | 0.00 | 0.00 | 0.00 | 99 | 1016.1 |
| 20260510131122 | 19 | 86 | 0.0 | 0.0 | 0.00 | 0.00 | 0.00 | 99 | 1015.9 |
| 20260510130618 | 20 | 156 | 0.0 | 0.0 | 0.00 | 0.00 | 0.00 | 99 | 1016.0 |
| 20260510130336 | 19 | 106 | 0.0 | 0.0 | 0.00 | 0.00 | 0.00 | 99 | 1015.8 |
| 20260510125610 | 19 | 164 | 0.0 | 0.0 | 0.00 | 0.00 | 0.00 | 99 | 1015.9 |
| 20260510125106 | 19 | 120 | 0.0 | 0.0 | 0.00 | 0.00 | 0.00 | 99 | 1015.7 |
| 20260510124600 | 19 | 134 | 0.0 | 0.0 | 0.00 | 0.00 | 0.00 | 99 | 1015.7 |
| 20260510124050 | 18 | 149 | 0.0 | 0.0 | 0.00 | 0.00 | 0.00 | 99 | 1015.7 |
| 20260510123529 | 18 | 108 | 0.0 | 0.0 | 0.00 | 0.00 | 0.00 | 99 | 1015.6 |
| 20260510122949 | 18 | 143 | 0.0 | 0.0 | 0.00 | 0.00 | 0.00 | 99 | 1015.7 |
| 20260510122416 | 18 | 124 | 0.0 | 0.0 | 0.00 | 0.00 | 0.00 | 99 | 1015.7 |
| 20260510122116 | 18 | 160 | 0.0 | 0.0 | 0.00 | 0.00 | 0.00 | 99 | 1015.5 |
| 20260510121354 | 18 | 159 | 0.0 | 0.0 | 0.00 | 0.00 | 0.00 | 99 | 1015.4 |
| 20260510121046 | 18 | 158 | 0.0 | 0.0 | 0.00 | 0.00 | 0.00 | 99 | 1015.2 |
| 20260510120319 | 18 | 162 | 0.0 | 0.0 | 0.00 | 0.00 | 0.00 | 99 | 1015.2 |
| 20260510120036 | 18 | 162 | 0.0 | 0.0 | 0.00 | 0.00 | 0.00 | 99 | 1014.9 |
| 20260510115312 | 18 | 174 | 0.0 | 0.0 | 0.00 | 0.00 | 0.00 | 99 | 1015.3 |
| 20260510114807 | 18 | 173 | 0.0 | 0.0 | 0.00 | 0.00 | 0.00 | 99 | 1014.9 |
| 20260510114303 | 17 | 173 | 0.0 | 0.0 | 0.00 | 0.00 | 0.00 | 99 | 1014.8 |
| 20260510113759 | 17 | 174 | 0.0 | 0.0 | 0.00 | 0.00 | 0.00 | 99 | 1014.9 |
| 20260510113256 | 17 | 174 | 0.0 | 0.0 | 0.00 | 0.00 | 0.00 | 99 | 1014.8 |
| 20260510113013 | 17 | 174 | 0.0 | 0.0 | 0.00 | 0.00 | 0.00 | 99 | 1014.8 |
| 20260510112248 | 17 | 174 | 0.0 | 0.0 | 0.00 | 0.00 | 0.00 | 99 | 1014.6 |
| 20260510111743 | 17 | 174 | 0.0 | 0.0 | 0.00 | 0.00 | 0.00 | 99 | 1014.6 |
| 20260510111240 | 17 | 174 | 0.0 | 0.0 | 0.00 | 0.00 | 0.00 | 99 | 1014.3 |
| 20260510110735 | 17 | 174 | 0.0 | 0.0 | 0.00 | 0.00 | 0.00 | 99 | 1014.4 |
| 20260510110231 | 17 | 189 | 0.0 | 0.0 | 0.00 | 0.00 | 0.00 | 99 | 1014.3 |
| 20260510105727 | 17 | 189 | 0.0 | 0.0 | 0.00 | 0.00 | 0.00 | 99 | 1014.1 |
| 20260510105223 | 17 | 187 | 0.0 | 0.0 | 0.00 | 0.00 | 0.00 | 99 | 1014.2 |
| 20260510104719 | 17 | 187 | 0.0 | 0.0 | 0.00 | 0.00 | 0.00 | 99 | 1014.0 |
| 20260510104215 | 17 | 201 | 0.0 | 0.0 | 0.00 | 0.00 | 0.00 | 99 | 1013.9 |
| 20260510103711 | 17 | 197 | 0.0 | 0.0 | 0.00 | 0.00 | 0.00 | 99 | 1013.9 |
| 20260510103206 | 17 | 136 | 0.0 | 0.0 | 0.00 | 0.00 | 0.00 | 99 | 1013.9 |
| 20260510102703 | 17 | 125 | 0.0 | 0.0 | 0.00 | 0.00 | 0.00 | 99 | 1013.7 |
| 20260510102158 | 17 | 167 | 0.0 | 0.0 | 0.00 | 0.00 | 0.00 | 99 | 1013.4 |
| 20260510101654 | 17 | 168 | 0.0 | 0.0 | 0.00 | 0.00 | 0.00 | 99 | 1013.5 |
| 20260510101151 | 17 | 168 | 0.0 | 0.0 | 0.00 | 0.00 | 0.00 | 99 | 1013.5 |
| 20260510100646 | 17 | 167 | 0.0 | 0.0 | 0.00 | 0.00 | 0.00 | 99 | 1013.5 |
| 20260510100143 | 17 | 166 | 0.0 | 0.0 | 0.00 | 0.00 | 0.00 | 99 | 1013.4 |
| 20260510095900 | 17 | 167 | 0.0 | 0.0 | 0.00 | 0.00 | 0.00 | 99 | 1013.6 |
| 20260510095133 | 17 | 136 | 0.0 | 0.0 | 0.00 | 0.00 | 0.00 | 99 | 1013.6 |
| 20260510094629 | 17 | 126 | 0.0 | 0.0 | 0.00 | 0.00 | 0.00 | 99 | 1013.5 |
| 20260510094126 | 17 | 144 | 0.0 | 0.0 | 0.00 | 0.00 | 0.00 | 99 | 1013.3 |
| 20260510093622 | 17 | 173 | 0.0 | 0.0 | 0.00 | 0.00 | 0.00 | 99 | 1013.4 |
| 20260510093118 | 17 | 173 | 0.0 | 0.0 | 0.00 | 0.00 | 0.00 | 99 | 1013.4 |
| 20260510092614 | 17 | 139 | 0.0 | 0.0 | 0.00 | 0.00 | 0.00 | 99 | 1013.2 |
| 20260510092109 | 17 | 139 | 0.0 | 0.0 | 0.00 | 0.00 | 0.00 | 99 | 1013.2 |
| 20260510091606 | 17 | 138 | 0.0 | 0.0 | 0.00 | 0.00 | 0.00 | 99 | 1013.1 |
| 20260510091101 | 17 | 145 | 0.0 | 0.0 | 0.00 | 0.00 | 0.00 | 99 | 1013.3 |
| 20260510090557 | 17 | 135 | 0.0 | 0.0 | 0.00 | 0.00 | 0.00 | 99 | 1013.1 |
| 20260510090047 | 17 | 133 | 0.0 | 0.0 | 0.00 | 0.00 | 0.00 | 99 | 1013.1 |
| 20260510090024 | 17 | 134 | 0.0 | 0.0 | 0.00 | 0.00 | 0.00 | 99 | 1012.9 |
| 20260510085024 | 17 | 120 | 0.0 | 0.0 | 0.00 | 0.00 | 0.00 | 99 | 1013.0 |
| 20260510084509 | 17 | 144 | 0.0 | 0.0 | 0.00 | 0.00 | 0.00 | 99 | 1012.9 |
| 20260510084000 | 17 | 133 | 0.0 | 0.0 | 0.00 | 0.00 | 0.00 | 99 | 1012.9 |
| 20260510083705 | 17 | 138 | 0.0 | 0.0 | 0.00 | 0.00 | 0.00 | 99 | 1012.8 |
| 20260510082942 | 17 | 93 | 0.0 | 0.0 | 0.00 | 0.00 | 0.00 | 99 | 1012.8 |
| 20260510082416 | 17 | 154 | 0.0 | 0.0 | 0.00 | 0.00 | 0.00 | 99 | 1012.8 |
| 20260510081852 | 17 | 154 | 0.0 | 0.0 | 0.00 | 0.00 | 0.00 | 99 | 1012.8 |
| 20260510081325 | 17 | 173 | 0.0 | 0.0 | 0.00 | 0.00 | 0.00 | 99 | 1012.9 |
| 20260510080821 | 17 | 173 | 0.0 | 0.0 | 0.00 | 0.00 | 0.00 | 99 | 1012.8 |
| 20260510080537 | 17 | 173 | 0.0 | 0.0 | 0.00 | 0.00 | 0.00 | 99 | 1012.8 |
| 20260510075813 | 17 | 173 | 0.0 | 0.0 | 0.00 | 0.00 | 0.00 | 99 | 1012.6 |
| 20260510075309 | 17 | 173 | 0.0 | 0.0 | 0.00 | 0.00 | 0.00 | 99 | 1012.6 |
| 20260510075028 | 17 | 173 | 0.0 | 0.0 | 0.00 | 0.00 | 0.00 | 99 | 1012.7 |
| 20260510074302 | 17 | 144 | 0.0 | 0.0 | 0.00 | 0.00 | 0.00 | 99 | 1012.3 |
| 20260510073757 | 17 | 132 | 0.0 | 0.0 | 0.00 | 0.00 | 0.00 | 99 | 1012.2 |
| 20260510073254 | 17 | 153 | 0.0 | 0.0 | 0.00 | 0.00 | 0.00 | 99 | 1012.4 |
| 20260510072749 | 17 | 182 | 0.0 | 0.0 | 0.00 | 0.00 | 0.00 | 99 | 1012.3 |
| 20260510072245 | 17 | 182 | 0.0 | 0.0 | 0.00 | 0.00 | 0.00 | 99 | 1012.2 |
| 20260510071740 | 17 | 183 | 0.0 | 0.0 | 0.00 | 0.00 | 0.00 | 99 | 1012.2 |
| 20260510071237 | 17 | 182 | 0.0 | 0.0 | 0.00 | 0.00 | 0.00 | 99 | 1012.3 |
| 20260510070951 | 17 | 188 | 0.0 | 0.0 | 0.00 | 0.00 | 0.00 | 99 | 1012.2 |
| 20260510070448 | 17 | 123 | 0.0 | 0.0 | 0.00 | 0.00 | 0.00 | 99 | 1012.1 |
| 20260510065722 | 17 | 90 | 0.0 | 0.0 | 0.00 | 0.00 | 0.00 | 99 | 1011.8 |
| 20260510065219 | 17 | 125 | 0.0 | 0.0 | 0.00 | 0.00 | 0.00 | 99 | 1012.2 |
| 20260510064934 | 17 | 122 | 0.0 | 0.0 | 0.00 | 0.00 | 0.00 | 99 | 1012.1 |
| 20260510064211 | 17 | 109 | 0.0 | 0.0 | 0.00 | 0.00 | 0.00 | 99 | 1012.1 |
| 20260510063707 | 17 | 104 | 0.0 | 1.6 | 0.00 | 0.00 | 0.00 | 99 | 1012.2 |
| 20260510063202 | 17 | 58 | 0.0 | 0.0 | 0.00 | 0.00 | 0.00 | 99 | 1012.1 |
| 20260510062657 | 17 | 97 | 0.0 | 0.0 | 0.00 | 0.00 | 0.00 | 99 | 1012.3 |
| 20260510062153 | 17 | 121 | 0.0 | 0.0 | 0.00 | 0.00 | 0.00 | 99 | 1012.2 |
| 20260510061648 | 17 | 164 | 0.0 | 0.0 | 0.00 | 0.00 | 0.00 | 99 | 1012.3 |
| 20260510061144 | 17 | 66 | 0.0 | 0.0 | 0.00 | 0.00 | 0.00 | 99 | 1012.1 |
| 20260510060640 | 17 | 126 | 0.0 | 0.0 | 0.00 | 0.00 | 0.00 | 99 | 1012.3 |
| 20260510060136 | 17 | 103 | 0.0 | 0.0 | 0.00 | 0.00 | 0.00 | 99 | 1012.3 |
| 20260510055631 | 17 | 125 | 0.0 | 0.0 | 0.00 | 0.00 | 0.00 | 99 | 1012.5 |
| 20260510055126 | 17 | 297 | 0.0 | 0.0 | 0.00 | 0.00 | 0.00 | 99 | 1012.6 |
| 20260510054622 | 17 | 255 | 3.2 | 3.2 | 0.00 | 0.00 | 0.00 | 99 | 1012.2 |
| 20260510054118 | 17 | 132 | 0.0 | 1.6 | 0.00 | 0.00 | 0.00 | 99 | 1011.9 |
| 20260510053614 | 17 | 101 | 1.6 | 4.8 | 0.00 | 0.00 | 0.00 | 99 | 1011.8 |
| 20260510053110 | 17 | 132 | 3.2 | 3.2 | 0.00 | 0.00 | 0.00 | 99 | 1012.1 |
| 20260510052606 | 17 | 124 | 0.0 | 0.0 | 0.00 | 0.00 | 0.00 | 99 | 1012.3 |
| 20260510052100 | 18 | 128 | 0.0 | 0.0 | 0.00 | 0.00 | 0.00 | 99 | 1012.6 |
| 20260510051558 | 18 | 141 | 0.0 | 0.0 | 0.00 | 0.00 | 0.00 | 99 | 1012.8 |
| 20260510051315 | 18 | 159 | 0.0 | 0.0 | 0.00 | 0.00 | 0.00 | 99 | 1013.0 |
| 20260510050807 | 18 | 170 | 0.0 | 0.0 | 0.00 | 0.00 | 0.00 | 99 | 1012.9 |
| 20260510050016 | 18 | 169 | 0.0 | 0.0 | 0.00 | 0.00 | 0.00 | 99 | 1013.0 |
| 20260510045438 | 18 | 149 | 0.0 | 0.0 | 0.00 | 0.00 | 1.85 | 99 | 1012.9 |
| 20260510044934 | 18 | 149 | 0.0 | 0.0 | 0.00 | 0.00 | 1.85 | 99 | 1013.2 |
| 20260510044353 | 18 | 149 | 0.0 | 0.0 | 0.00 | 0.00 | 1.85 | 99 | 1013.0 |
| 20260510043823 | 18 | 119 | 0.0 | 0.0 | 0.00 | 0.00 | 1.85 | 99 | 1013.2 |
| 20260510043318 | 18 | 122 | 0.0 | 1.6 | 0.00 | 0.00 | 1.85 | 99 | 1013.1 |
| 20260510043035 | 18 | 116 | 0.0 | 0.0 | 0.00 | 0.00 | 1.85 | 99 | 1013.2 |
| 20260510042757 | 18 | 179 | 0.0 | 0.0 | 0.00 | 0.00 | 1.85 | 99 | 1013.1 |
| 20260510042029 | 18 | 168 | 0.0 | 0.0 | 0.00 | 0.00 | 1.85 | 99 | 1013.5 |
| 20260510041302 | 18 | 147 | 0.0 | 0.0 | 0.00 | 0.00 | 1.85 | 99 | 1013.2 |
| 20260510040759 | 18 | 162 | 0.0 | 0.0 | 0.00 | 0.00 | 1.85 | 99 | 1013.2 |
| 20260510040255 | 18 | 160 | 0.0 | 0.0 | 0.00 | 0.00 | 1.85 | 99 | 1013.1 |
| 20260510035750 | 18 | 152 | 0.0 | 0.0 | 0.00 | 0.00 | 1.85 | 99 | 1013.1 |
| 20260510035246 | 18 | 153 | 0.0 | 0.0 | 0.00 | 0.00 | 1.85 | 99 | 1013.1 |
| 20260510034742 | 18 | 153 | 0.0 | 0.0 | 0.00 | 0.00 | 1.85 | 99 | 1013.6 |
| 20260510034238 | 18 | 153 | 0.0 | 0.0 | 0.00 | 0.00 | 1.85 | 99 | 1013.5 |
| 20260510033734 | 18 | 141 | 0.0 | 0.0 | 0.00 | 0.00 | 1.85 | 99 | 1013.4 |
| 20260510033230 | 18 | 134 | 0.0 | 0.0 | 0.00 | 0.00 | 1.85 | 99 | 1013.2 |
| 20260510032725 | 18 | 142 | 0.0 | 0.0 | 0.00 | 0.00 | 1.85 | 99 | 1013.4 |
| 20260510032221 | 18 | 130 | 0.0 | 0.0 | 0.00 | 0.00 | 1.85 | 99 | 1013.6 |
| 20260510031717 | 18 | 130 | 0.0 | 0.0 | 0.00 | 0.00 | 1.85 | 99 | 1013.3 |
| 20260510031213 | 18 | 127 | 0.0 | 0.0 | 0.00 | 0.00 | 1.85 | 99 | 1013.5 |
| 20260510030709 | 18 | 72 | 0.0 | 3.2 | 0.00 | 0.00 | 1.85 | 99 | 1013.3 |
| 20260510030204 | 18 | 117 | 0.0 | 0.0 | 0.00 | 0.00 | 1.85 | 99 | 1013.3 |
| 20260510025700 | 18 | 108 | 0.0 | 0.0 | 0.00 | 0.00 | 1.85 | 99 | 1013.2 |
| 20260510025156 | 18 | 126 | 0.0 | 0.0 | 0.00 | 0.00 | 1.85 | 99 | 1012.9 |
| 20260510024651 | 18 | 112 | 0.0 | 3.2 | 0.00 | 0.00 | 1.85 | 99 | 1013.1 |
| 20260510024148 | 18 | 92 | 1.6 | 1.6 | 0.00 | 0.00 | 1.85 | 99 | 1012.8 |
| 20260510023902 | 18 | 21 | 0.0 | 0.0 | 0.00 | 0.00 | 1.85 | 99 | 1012.9 |
| 20260510023140 | 18 | 88 | 0.0 | 0.0 | 0.00 | 0.00 | 1.85 | 99 | 1012.5 |
| 20260510022635 | 18 | 101 | 0.0 | 0.0 | 0.00 | 0.00 | 1.85 | 99 | 1012.7 |
| 20260510022352 | 18 | 164 | 0.0 | 0.0 | 0.00 | 0.00 | 1.85 | 99 | 1012.6 |
| 20260510021628 | 18 | 164 | 0.0 | 0.0 | 0.00 | 0.00 | 1.85 | 99 | 1012.9 |
| 20260510021123 | 18 | 164 | 0.0 | 0.0 | 0.00 | 0.00 | 1.85 | 99 | 1012.9 |
| 20260510020615 | 18 | 164 | 0.0 | 0.0 | 0.00 | 0.00 | 1.85 | 99 | 1012.9 |
| 20260510020058 | 18 | 162 | 0.0 | 0.0 | 0.00 | 0.00 | 1.85 | 99 | 1012.6 |
| 20260510015550 | 18 | 153 | 0.0 | 0.0 | 0.18 | 0.00 | 1.85 | 99 | 1012.6 |
| 20260510015232 | 18 | 153 | 0.0 | 0.0 | 0.18 | 0.00 | 1.85 | 99 | 1012.6 |
| 20260510014725 | 18 | 153 | 0.0 | 0.0 | 0.00 | 0.00 | 1.83 | 99 | 1012.7 |
| 20260510013956 | 18 | 147 | 0.0 | 0.0 | 0.00 | 0.00 | 1.83 | 99 | 1012.6 |
| 20260510013443 | 18 | 138 | 0.0 | 0.0 | 0.00 | 0.00 | 1.83 | 99 | 1012.6 |
| 20260510012909 | 18 | 138 | 0.0 | 0.0 | 0.00 | 0.00 | 1.83 | 99 | 1013.0 |
| 20260510012543 | 18 | 135 | 0.0 | 0.0 | 0.00 | 0.00 | 1.83 | 99 | 1012.8 |
| 20260510011818 | 18 | 125 | 0.0 | 0.0 | 0.00 | 0.00 | 1.83 | 99 | 1012.8 |
| 20260510011314 | 18 | 138 | 0.0 | 0.0 | 0.00 | 0.00 | 1.83 | 99 | 1012.9 |
| 20260510011029 | 18 | 143 | 0.0 | 0.0 | 0.00 | 0.00 | 1.83 | 99 | 1012.9 |
| 20260510010307 | 18 | 177 | 0.0 | 0.0 | 0.00 | 0.00 | 1.83 | 99 | 1013.0 |
| 20260510005802 | 18 | 179 | 0.0 | 0.0 | 0.00 | 0.00 | 1.83 | 99 | 1012.8 |
| 20260510005258 | 18 | 197 | 0.0 | 0.0 | 0.00 | 0.00 | 1.83 | 99 | 1012.6 |
| 20260510005017 | 18 | 164 | 0.0 | 0.0 | 0.00 | 0.00 | 1.83 | 99 | 1012.3 |
| 20260510004510 | 18 | 140 | 0.0 | 0.0 | 0.00 | 0.00 | 1.83 | 98 | 1012.2 |
| 20260510004007 | 18 | 134 | 0.0 | 0.0 | 0.00 | 0.00 | 1.83 | 98 | 1012.2 |
| 20260510003242 | 18 | 137 | 0.0 | 0.0 | 0.00 | 0.00 | 1.83 | 98 | 1012.2 |
| 20260510002738 | 18 | 135 | 0.0 | 0.0 | 0.00 | 0.00 | 1.83 | 98 | 1012.0 |
| 20260510002234 | 18 | 124 | 0.0 | 0.0 | 0.00 | 0.00 | 1.83 | 98 | 1012.1 |
| 20260510001731 | 18 | 138 | 0.0 | 0.0 | 0.00 | 0.00 | 1.83 | 98 | 1012.2 |
| 20260510001227 | 18 | 133 | 0.0 | 0.0 | 0.00 | 0.00 | 1.83 | 98 | 1012.3 |
| 20260510000722 | 18 | 101 | 0.0 | 0.0 | 0.00 | 0.00 | 1.83 | 98 | 1012.4 |
| 20260510000437 | 19 | 144 | 0.0 | 0.0 | 0.00 | 0.00 | 1.83 | 98 | 1012.0 |
| 20260509235714 | 19 | 138 | 0.0 | 0.0 | 0.00 | 0.00 | 1.83 | 98 | 1012.1 |
| 20260509235210 | 19 | 167 | 0.0 | 0.0 | 0.00 | 0.00 | 1.83 | 98 | 1012.0 |
| 20260509234705 | 19 | 153 | 0.0 | 0.0 | 0.00 | 0.00 | 1.83 | 97 | 1011.6 |
| 20260509234424 | 19 | 158 | 0.0 | 0.0 | 0.00 | 0.00 | 1.83 | 98 | 1011.7 |
| 20260509233657 | 19 | 187 | 0.0 | 0.0 | 0.00 | 0.00 | 1.83 | 97 | 1011.8 |
| 20260509233154 | 19 | 149 | 0.0 | 0.0 | 0.00 | 0.00 | 1.83 | 97 | 1011.8 |
| 20260509232650 | 19 | 144 | 0.0 | 0.0 | 0.00 | 0.00 | 1.83 | 97 | 1012.1 |
| 20260509232146 | 19 | 145 | 0.0 | 0.0 | 0.00 | 0.00 | 1.83 | 97 | 1011.9 |
| 20260509231642 | 19 | 208 | 0.0 | 1.6 | 0.00 | 0.00 | 1.83 | 97 | 1012.0 |
| 20260509231138 | 19 | 139 | 0.0 | 0.0 | 0.13 | 0.00 | 1.83 | 97 | 1012.0 |
| 20260509230634 | 19 | 168 | 0.0 | 0.0 | 0.13 | 0.00 | 1.83 | 97 | 1011.8 |
| 20260509230351 | 19 | 174 | 0.0 | 0.0 | 0.00 | 0.00 | 1.80 | 96 | 1011.9 |
| 20260509225626 | 19 | 173 | 0.0 | 0.0 | 0.00 | 0.00 | 1.80 | 96 | 1012.0 |
| 20260509225120 | 19 | 176 | 0.0 | 0.0 | 0.00 | 0.00 | 1.80 | 96 | 1011.4 |
| 20260509224617 | 19 | 175 | 0.0 | 0.0 | 0.00 | 0.00 | 1.80 | 96 | 1011.5 |
| 20260509224113 | 19 | 174 | 0.0 | 0.0 | 0.00 | 0.00 | 1.80 | 95 | 1011.4 |
| 20260509223827 | 19 | 175 | 0.0 | 0.0 | 0.00 | 0.00 | 1.80 | 95 | 1011.5 |
| 20260509223324 | 19 | 195 | 1.6 | 3.2 | 0.00 | 0.00 | 1.80 | 95 | 1011.6 |
| 20260509222601 | 19 | 192 | 0.0 | 0.0 | 0.00 | 0.00 | 1.80 | 95 | 1011.8 |
| 20260509222056 | 20 | 177 | 0.0 | 0.0 | 0.00 | 0.00 | 1.80 | 95 | 1011.5 |
| 20260509221553 | 20 | 242 | 1.6 | 1.6 | 0.00 | 0.00 | 1.80 | 95 | 1011.3 |
| 20260509221304 | 20 | 251 | 3.2 | 4.8 | 0.00 | 0.00 | 1.80 | 95 | 1011.6 |
| 20260509220524 | 20 | 178 | 0.0 | 3.2 | 0.00 | 0.00 | 1.80 | 95 | 1011.4 |
| 20260509215945 | 20 | 208 | 0.0 | 0.0 | 0.18 | 0.00 | 1.80 | 95 | 1011.5 |
| 20260509215434 | 20 | 192 | 0.0 | 1.6 | 0.18 | 0.00 | 1.80 | 95 | 1011.7 |
| 20260509214930 | 20 | 200 | 0.0 | 1.6 | 0.00 | 0.00 | 1.78 | 95 | 1011.8 |
| 20260509214417 | 20 | 210 | 1.6 | 3.2 | 0.00 | 0.00 | 1.78 | 94 | 1011.7 |
| 20260509213916 | 20 | 199 | 0.0 | 1.6 | 0.00 | 0.00 | 1.78 | 94 | 1011.6 |
| 20260509213409 | 20 | 168 | 0.0 | 0.0 | 0.00 | 0.00 | 1.78 | 94 | 1011.4 |
| 20260509212848 | 20 | 193 | 0.0 | 0.0 | 0.13 | 0.00 | 1.78 | 93 | 1011.3 |
| 20260509212346 | 20 | 186 | 0.0 | 0.0 | 0.00 | 0.00 | 1.75 | 93 | 1011.4 |
| 20260509212103 | 20 | 211 | 0.0 | 0.0 | 0.00 | 0.00 | 1.75 | 94 | 1011.6 |
| 20260509211339 | 20 | 202 | 3.2 | 4.8 | 0.00 | 0.00 | 1.75 | 93 | 1011.5 |
| 20260509211044 | 20 | 206 | 3.2 | 3.2 | 0.18 | 0.00 | 1.75 | 94 | 1011.4 |
| 20260509210319 | 20 | 200 | 3.2 | 4.8 | 0.18 | 0.00 | 1.75 | 94 | 1011.4 |
| 20260509205817 | 20 | 194 | 0.0 | 1.6 | 0.00 | 0.00 | 1.73 | 94 | 1011.4 |
| 20260509205311 | 20 | 175 | 0.0 | 3.2 | 0.00 | 0.00 | 1.73 | 94 | 1011.3 |
| 20260509205028 | 20 | 164 | 0.0 | 0.0 | 0.13 | 0.00 | 1.73 | 94 | 1011.2 |
| 20260509204303 | 20 | 216 | 3.2 | 3.2 | 0.00 | 0.00 | 1.70 | 94 | 1011.1 |
| 20260509204017 | 20 | 171 | 0.0 | 0.0 | 0.00 | 0.00 | 1.70 | 95 | 1011.1 |
| 20260509203254 | 20 | 157 | 0.0 | 0.0 | 0.18 | 0.00 | 1.70 | 95 | 1010.9 |
| 20260509202751 | 20 | 141 | 0.0 | 1.6 | 0.18 | 0.00 | 1.70 | 95 | 1010.8 |
| 20260509202508 | 20 | 123 | 0.0 | 0.0 | 0.00 | 0.00 | 1.68 | 95 | 1010.7 |
| 20260509201743 | 20 | 162 | 0.0 | 0.0 | 0.13 | 0.00 | 1.68 | 96 | 1010.9 |
| 20260509201238 | 20 | 262 | 4.8 | 6.4 | 0.13 | 0.00 | 1.68 | 95 | 1011.0 |
| 20260509200734 | 20 | 146 | 3.2 | 3.2 | 0.00 | 0.00 | 1.65 | 94 | 1010.2 |
| 20260509200230 | 20 | 146 | 0.0 | 0.0 | 0.18 | 0.00 | 1.65 | 95 | 1010.2 |
| 20260509195727 | 20 | 101 | 0.0 | 1.6 | 0.18 | 0.00 | 1.65 | 95 | 1010.1 |
| 20260509195224 | 20 | 155 | 0.0 | 3.2 | 0.18 | 0.00 | 1.63 | 95 | 1010.6 |
| 20260509194718 | 20 | 177 | 1.6 | 6.4 | 0.18 | 0.00 | 1.63 | 96 | 1010.5 |
| 20260509194214 | 20 | 261 | 3.2 | 3.2 | 0.13 | 0.00 | 1.60 | 95 | 1010.1 |
| 20260509193709 | 20 | 59 | 0.0 | 3.2 | 0.13 | 0.00 | 1.60 | 95 | 1009.8 |
| 20260509193205 | 20 | 118 | 0.0 | 1.6 | 0.00 | 0.00 | 1.57 | 95 | 1009.9 |
| 20260509192702 | 20 | 135 | 0.0 | 1.6 | 0.18 | 0.00 | 1.57 | 94 | 1009.9 |
| 20260509192157 | 20 | 158 | 0.0 | 4.8 | 0.13 | 0.00 | 1.55 | 94 | 1009.7 |
| 20260509191653 | 20 | 11 | 1.6 | 4.8 | 0.13 | 0.00 | 1.55 | 94 | 1009.7 |
| 20260509191149 | 20 | 126 | 0.0 | 1.6 | 0.18 | 0.00 | 1.52 | 94 | 1009.9 |